createdAt,value
2023-02-19T00:01:45.532Z,98644.04
2023-02-19T00:06:48.528Z,98636.54
2023-02-19T00:11:54.757Z,98633.46
2023-02-19T00:16:59.492Z,98633.92
2023-02-19T00:22:01.151Z,98641.71
2023-02-19T00:27:03.011Z,98640.58
2023-02-19T00:32:05.221Z,98638.09
2023-02-19T00:37:08.455Z,98639.05
2023-02-19T00:42:10.106Z,98630.04
2023-02-19T00:47:11.913Z,98632.67
2023-02-19T00:52:14.372Z,98630.57
2023-02-19T00:57:16.273Z,98625.61
2023-02-19T01:02:17.987Z,98627.75
2023-02-19T01:07:19.749Z,98621.08
2023-02-19T01:12:21.505Z,98619.51
2023-02-19T01:17:23.353Z,98607.56
2023-02-19T01:22:25.076Z,98608.04
2023-02-19T01:27:26.934Z,98604.32
2023-02-19T01:32:28.689Z,98596.85
2023-02-19T01:37:30.518Z,98585.11
2023-02-19T01:42:32.246Z,98575.72
2023-02-19T01:47:34.147Z,98583.53
2023-02-19T01:52:37.009Z,98572.88
2023-02-19T01:57:43.633Z,98564.98
2023-02-19T02:02:51.100Z,98566.95
2023-02-19T02:08:11.670Z,98561.45
2023-02-19T02:13:13.433Z,98555.45
2023-02-19T02:18:41.594Z,98551.69
2023-02-19T02:24:06.688Z,98549.27
2023-02-19T02:29:29.834Z,98539.02
2023-02-19T02:34:42.584Z,98531.35
2023-02-19T02:39:46.927Z,98530.89
2023-02-19T02:45:07.303Z,98528.27
2023-02-19T02:50:25.086Z,98510.59
2023-02-19T02:55:31.838Z,98500.24
2023-02-19T03:00:54.876Z,98492.80
2023-02-19T03:06:05.073Z,98490.17
2023-02-19T03:11:31.123Z,98488.98
2023-02-19T03:16:56.459Z,98491.23
2023-02-19T03:22:10.251Z,98496.23
2023-02-19T03:27:14.490Z,98495.96
2023-02-19T03:32:39.291Z,98496.34
2023-02-19T03:37:47.072Z,98498.75
2023-02-19T03:43:10.031Z,98498.27
2023-02-19T03:48:19.668Z,98494.54
2023-02-19T03:53:54.691Z,98488.00
2023-02-19T03:59:11.249Z,98481.15
2023-02-19T04:04:13.185Z,98472.14
2023-02-19T04:09:17.458Z,98461.41
2023-02-19T04:14:28.918Z,98463.26
2023-02-19T04:19:34.329Z,98459.52
2023-02-19T04:24:43.229Z,98448.34
2023-02-19T04:29:45.105Z,98454.83
2023-02-19T04:34:46.851Z,98452.30
2023-02-19T04:39:48.567Z,98440.77
2023-02-19T04:44:50.374Z,98428.39
2023-02-19T04:49:52.357Z,98408.39
2023-02-19T04:54:54.133Z,98397.85
2023-02-19T04:59:55.802Z,98396.98
2023-02-19T05:04:57.537Z,98380.89
2023-02-19T05:09:59.860Z,98371.07
2023-02-19T05:15:01.584Z,98368.02
2023-02-19T05:20:04.073Z,98367.50
2023-02-19T05:25:06.127Z,98363.96
2023-02-19T05:30:08.602Z,98359.96
2023-02-19T05:35:10.307Z,98362.52
2023-02-19T05:40:12.028Z,98370.16
2023-02-19T05:45:13.729Z,98367.48
2023-02-19T05:50:15.523Z,98376.00
2023-02-19T05:55:17.374Z,98381.06
2023-02-19T06:00:19.942Z,98394.48
2023-02-19T06:05:21.753Z,98402.09
2023-02-19T06:10:23.572Z,98394.49
2023-02-19T06:15:25.280Z,98384.88
2023-02-19T06:20:27.358Z,98379.47
2023-02-19T06:25:29.149Z,98383.16
2023-02-19T06:30:30.892Z,98382.60
2023-02-19T06:35:32.812Z,98380.14
2023-02-19T06:40:34.475Z,98381.31
2023-02-19T06:45:36.133Z,98375.39
2023-02-19T06:50:38.123Z,98377.59
2023-02-19T06:55:40.451Z,98378.26
2023-02-19T07:00:42.161Z,98374.02
2023-02-19T07:05:43.936Z,98373.04
2023-02-19T07:10:45.961Z,98368.96
2023-02-19T07:15:48.900Z,98363.61
2023-02-19T07:20:51.968Z,98364.37
2023-02-19T07:25:53.805Z,98362.06
2023-02-19T07:31:01.816Z,98358.88
2023-02-19T07:36:03.761Z,98349.23
2023-02-19T07:41:06.892Z,98339.62
2023-02-19T07:46:11.986Z,98330.38
2023-02-19T07:51:18.802Z,98319.44
2023-02-19T07:56:20.989Z,98315.79
2023-02-19T08:01:42.580Z,98315.80
2023-02-19T08:06:44.336Z,98315.98
2023-02-19T08:12:04.715Z,98315.84
2023-02-19T08:17:06.395Z,98315.36
2023-02-19T08:22:08.293Z,98322.77
2023-02-19T08:27:10.211Z,98320.61
2023-02-19T08:32:12.277Z,98323.70
2023-02-19T08:37:14.064Z,98333.02
2023-02-19T08:42:15.711Z,98339.63
2023-02-19T08:47:17.387Z,98341.14
2023-02-19T08:52:19.067Z,98342.98
2023-02-19T08:57:20.776Z,98343.94
2023-02-19T09:02:23.536Z,98349.83
2023-02-19T09:07:25.256Z,98356.09
2023-02-19T09:12:27.282Z,98359.45
2023-02-19T09:17:28.951Z,98364.02
2023-02-19T09:22:30.678Z,98367.54
2023-02-19T09:27:33.245Z,98380.23
2023-02-19T09:32:34.909Z,98390.53
2023-02-19T09:37:36.568Z,98388.44
2023-02-19T09:42:42.252Z,98395.77
2023-02-19T09:47:43.962Z,98403.11
2023-02-19T09:52:53.679Z,98419.52
2023-02-19T09:57:57.997Z,98428.46
2023-02-19T10:03:05.997Z,98432.10
2023-02-19T10:08:14.871Z,98437.33
2023-02-19T10:13:42.843Z,98449.55
2023-02-19T10:18:46.614Z,98449.42
2023-02-19T10:23:53.703Z,98451.17
2023-02-19T10:28:55.644Z,98468.93
2023-02-19T10:34:00.353Z,98484.58
2023-02-19T10:39:22.751Z,98484.77
2023-02-19T10:44:28.076Z,98500.61
2023-02-19T10:49:34.154Z,98499.33
2023-02-19T10:54:36.239Z,98514.92
2023-02-19T10:59:37.966Z,98519.64
2023-02-19T11:04:39.628Z,98526.10
2023-02-19T11:09:49.413Z,98531.50
2023-02-19T11:14:51.489Z,98536.54
2023-02-19T11:20:17.773Z,98546.86
2023-02-19T11:25:25.577Z,98560.28
2023-02-19T11:30:30.323Z,98559.65
2023-02-19T11:35:32.160Z,98573.84
2023-02-19T11:40:46.114Z,98582.98
2023-02-19T11:46:18.724Z,98591.55
2023-02-19T11:51:30.327Z,98615.73
2023-02-19T11:56:37.195Z,98621.34
2023-02-19T12:02:03.907Z,98616.95
2023-02-19T12:07:30.550Z,98633.16
2023-02-19T12:12:32.284Z,98642.73
2023-02-19T12:17:59.034Z,98641.15
2023-02-19T12:23:24.635Z,98653.34
2023-02-19T12:28:49.029Z,98672.36
2023-02-19T12:34:10.410Z,98686.86
2023-02-19T12:39:49.689Z,98689.41
2023-02-19T12:44:56.305Z,98698.66
2023-02-19T12:50:13.481Z,98707.66
2023-02-19T12:55:26.223Z,98710.23
2023-02-19T13:00:51.717Z,98719.39
2023-02-19T13:06:07.128Z,98723.65
2023-02-19T13:11:36.792Z,98729.12
2023-02-19T13:16:42.433Z,98736.86
2023-02-19T13:22:10.111Z,98746.91
2023-02-19T13:27:36.219Z,98756.20
2023-02-19T13:32:59.900Z,98762.52
2023-02-19T13:38:03.795Z,98769.71
2023-02-19T13:43:22.384Z,98777.83
2023-02-19T13:48:24.149Z,98780.42
2023-02-19T13:53:50.428Z,98790.50
2023-02-19T13:58:54.501Z,98804.59
2023-02-19T14:04:23.519Z,98814.17
2023-02-19T14:09:34.160Z,98815.64
2023-02-19T14:14:44.201Z,98814.19
2023-02-19T14:19:50.043Z,98819.77
2023-02-19T14:24:54.233Z,98833.59
2023-02-19T14:29:56.460Z,98842.05
2023-02-19T14:34:58.751Z,98852.77
2023-02-19T14:40:01.249Z,98853.40
2023-02-19T14:45:07.153Z,98874.03
2023-02-19T14:50:20.360Z,98867.92
2023-02-19T14:55:30.291Z,98868.44
2023-02-19T15:00:37.763Z,98872.04
2023-02-19T15:05:39.823Z,98866.88
2023-02-19T15:10:43.384Z,98878.29
2023-02-19T15:15:46.294Z,98889.79
2023-02-19T15:20:49.147Z,98899.72
2023-02-19T15:25:52.814Z,98901.05
2023-02-19T15:30:57.224Z,98906.06
2023-02-19T15:36:03.261Z,98913.65
2023-02-19T15:41:05.281Z,98928.43
2023-02-19T15:46:27.957Z,98938.09
2023-02-19T15:51:43.444Z,98957.61
2023-02-19T15:56:50.046Z,98960.25
2023-02-19T16:01:52.345Z,98967.08
2023-02-19T16:06:59.926Z,98979.45
2023-02-19T16:12:03.229Z,98995.45
2023-02-19T16:17:12.040Z,99004.66
2023-02-19T16:22:18.758Z,99009.80
2023-02-19T16:27:40.065Z,99024.31
2023-02-19T16:32:42.000Z,99035.13
2023-02-19T16:37:59.926Z,99048.86
2023-02-19T16:43:26.342Z,99070.92
2023-02-19T16:48:28.188Z,99080.29
2023-02-19T16:53:29.920Z,99094.86
2023-02-19T16:58:31.579Z,99100.80
2023-02-19T17:03:33.317Z,99111.73
2023-02-19T17:08:37.703Z,99115.77
2023-02-19T17:13:40.767Z,99116.98
2023-02-19T17:18:42.741Z,99128.11
2023-02-19T17:23:44.525Z,99129.73
2023-02-19T17:28:46.309Z,99135.12
2023-02-19T17:33:48.227Z,99141.10
2023-02-19T17:38:50.569Z,99155.94
2023-02-19T17:43:52.547Z,99175.73
2023-02-19T17:48:54.900Z,99180.73
2023-02-19T17:53:57.431Z,99177.65
2023-02-19T17:58:59.761Z,99185.03
2023-02-19T18:04:01.497Z,99197.44
2023-02-19T18:09:03.510Z,99203.66
2023-02-19T18:14:05.465Z,99213.16
2023-02-19T18:19:07.584Z,99218.95
2023-02-19T18:24:10.984Z,99224.81
2023-02-19T18:29:12.876Z,99224.02
2023-02-19T18:34:18.678Z,99232.73
2023-02-19T18:39:20.652Z,99241.65
2023-02-19T18:44:24.046Z,99252.98
2023-02-19T18:49:25.822Z,99254.95
2023-02-19T18:54:28.977Z,99263.83
2023-02-19T18:59:32.212Z,99269.04
2023-02-19T19:04:43.364Z,99274.23
2023-02-19T19:09:47.663Z,99257.84
2023-02-19T19:14:49.518Z,99286.08
2023-02-19T19:19:51.174Z,99290.53
2023-02-19T19:24:53.241Z,99289.33
2023-02-19T19:29:55.082Z,99296.49
2023-02-19T19:34:57.780Z,99299.70
2023-02-19T19:39:59.673Z,99311.96
2023-02-19T19:45:01.545Z,99311.16
2023-02-19T19:50:03.678Z,99312.13
2023-02-19T19:55:06.429Z,99312.36
2023-02-19T20:00:09.479Z,99313.89
2023-02-19T20:05:18.075Z,99315.01
2023-02-19T20:10:20.651Z,99313.19
2023-02-19T20:15:23.055Z,99314.99
2023-02-19T20:20:24.870Z,99320.83
2023-02-19T20:25:27.002Z,99325.19
2023-02-19T20:30:28.832Z,99329.03
2023-02-19T20:35:30.582Z,99333.84
2023-02-19T20:40:32.772Z,99344.06
2023-02-19T20:45:34.497Z,99345.27
2023-02-19T20:50:36.212Z,99350.64
2023-02-19T20:55:38.121Z,99349.27
2023-02-19T21:00:40.132Z,99357.16
2023-02-19T21:05:43.094Z,99366.98
2023-02-19T21:10:46.127Z,99374.99
2023-02-19T21:15:47.839Z,99391.21
2023-02-19T21:20:49.614Z,99395.33
2023-02-19T21:25:54.226Z,99399.70
2023-02-19T21:30:56.357Z,99409.27
2023-02-19T21:35:58.090Z,99414.15
2023-02-19T21:40:59.814Z,99422.95
2023-02-19T21:46:01.589Z,99426.23
2023-02-19T21:51:03.881Z,99426.27
2023-02-19T21:56:05.795Z,99428.65
2023-02-19T22:01:07.499Z,99436.55
2023-02-19T22:06:09.607Z,99437.45
2023-02-19T22:11:11.654Z,99434.91
2023-02-19T22:16:14.252Z,99433.89
2023-02-19T22:21:16.684Z,99413.59
2023-02-19T22:26:28.176Z,99446.05
2023-02-19T22:31:32.876Z,99448.77
2023-02-19T22:36:38.907Z,99455.12
2023-02-19T22:41:43.952Z,99465.85
2023-02-19T22:46:53.513Z,99459.92
2023-02-19T22:52:00.534Z,99464.16
2023-02-19T22:57:02.329Z,99476.38
2023-02-19T23:02:04.003Z,99493.00
2023-02-19T23:07:06.688Z,99490.79
2023-02-19T23:12:11.180Z,99493.65
2023-02-19T23:17:12.946Z,99498.35
2023-02-19T23:22:14.578Z,99503.31
2023-02-19T23:27:16.446Z,99504.89
2023-02-19T23:32:20.938Z,99500.21
2023-02-19T23:37:22.634Z,99502.10
2023-02-19T23:42:24.360Z,99497.65
2023-02-19T23:47:26.590Z,99492.55
2023-02-19T23:52:28.236Z,99497.13
2023-02-19T23:57:29.963Z,99490.60
